createdAt,value
2018-12-30T00:00:24.183Z,1015.77
2018-12-30T00:01:03.158Z,1015.80
2018-12-30T00:02:03.147Z,1015.81
2018-12-30T00:03:24.121Z,1015.89
2018-12-30T00:04:03.108Z,1015.87
2018-12-30T00:05:24.084Z,1015.81
2018-12-30T00:06:03.063Z,1015.83
2018-12-30T00:07:03.046Z,1015.82
2018-12-30T00:08:24.040Z,1015.90
2018-12-30T00:09:03.008Z,1016.00
2018-12-30T00:10:23.988Z,1015.91
2018-12-30T00:11:02.984Z,1016.00
2018-12-30T00:12:02.948Z,1015.99
2018-12-30T00:13:23.931Z,1015.96
2018-12-30T00:14:02.920Z,1016.04
2018-12-30T00:15:23.895Z,1016.01
2018-12-30T00:16:02.869Z,1016.01
2018-12-30T00:17:02.852Z,1016.10
2018-12-30T00:18:23.845Z,1016.01
2018-12-30T00:19:02.830Z,1016.07
2018-12-30T00:20:23.797Z,1016.10
2018-12-30T00:21:08.975Z,1016.13
2018-12-30T00:22:02.772Z,1016.21
2018-12-30T00:23:23.744Z,1016.29
2018-12-30T00:24:02.735Z,1016.27
2018-12-30T00:25:23.710Z,1016.37
2018-12-30T00:26:02.692Z,1016.28
2018-12-30T00:27:02.666Z,1016.24
2018-12-30T00:28:23.654Z,1016.40
2018-12-30T00:29:02.629Z,1016.29
2018-12-30T00:30:23.625Z,1016.39
2018-12-30T00:31:02.604Z,1016.27
2018-12-30T00:32:02.567Z,1016.41
2018-12-30T00:33:23.548Z,1016.31
2018-12-30T00:34:02.538Z,1016.29
2018-12-30T00:35:23.511Z,1016.43
2018-12-30T00:36:02.489Z,1016.52
2018-12-30T00:37:02.472Z,1016.50
2018-12-30T00:38:23.456Z,1016.25
2018-12-30T00:39:02.441Z,1016.49
2018-12-30T00:40:23.424Z,1016.51
2018-12-30T00:41:02.402Z,1016.51
2018-12-30T00:42:02.376Z,1016.42
2018-12-30T00:43:23.360Z,1016.57
2018-12-30T00:44:02.346Z,1016.59
2018-12-30T00:45:23.331Z,1016.59
2018-12-30T00:46:02.302Z,1016.63
2018-12-30T00:47:02.296Z,1016.60
2018-12-30T00:48:23.263Z,1016.59
2018-12-30T00:49:02.253Z,1016.73
2018-12-30T00:50:24.254Z,1016.65
2018-12-30T00:51:02.215Z,1016.60
2018-12-30T00:52:02.193Z,1016.74
2018-12-30T00:53:23.167Z,1016.71
2018-12-30T00:54:02.145Z,1017.00
2018-12-30T00:55:23.149Z,1016.64
2018-12-30T00:56:02.113Z,1016.71
2018-12-30T00:57:02.091Z,1017.02
2018-12-30T00:58:23.071Z,1016.84
2018-12-30T00:59:02.059Z,1016.80
2018-12-30T01:00:23.033Z,1017.07
2018-12-30T01:01:02.020Z,1016.90
2018-12-30T01:02:01.992Z,1016.95
2018-12-30T01:03:22.983Z,1016.97
2018-12-30T01:04:01.959Z,1016.95
2018-12-30T01:05:22.944Z,1016.98
2018-12-30T01:06:01.924Z,1016.90
2018-12-30T01:07:01.920Z,1016.98
2018-12-30T01:08:22.886Z,1017.02
2018-12-30T01:09:01.857Z,1016.96
2018-12-30T01:10:22.926Z,1017.04
2018-12-30T01:11:01.834Z,1017.21
2018-12-30T01:12:01.813Z,1017.16
2018-12-30T01:13:22.789Z,1017.17
2018-12-30T01:14:01.762Z,1017.14
2018-12-30T01:15:22.753Z,1017.19
2018-12-30T01:16:01.739Z,1017.25
2018-12-30T01:17:01.707Z,1017.23
2018-12-30T01:18:22.695Z,1017.23
2018-12-30T01:19:01.682Z,1017.30
2018-12-30T01:20:22.659Z,1017.27
2018-12-30T01:21:01.636Z,1017.31
2018-12-30T01:22:01.621Z,1017.35
2018-12-30T01:23:22.601Z,1017.36
2018-12-30T01:24:01.573Z,1017.45
2018-12-30T01:25:22.559Z,1017.48
2018-12-30T01:26:01.534Z,1017.49
2018-12-30T01:27:01.515Z,1017.46
2018-12-30T01:28:22.495Z,1017.47
2018-12-30T01:29:01.485Z,1017.46
2018-12-30T01:30:22.460Z,1017.49
2018-12-30T01:31:01.457Z,1017.48
2018-12-30T01:32:01.427Z,1017.56
2018-12-30T01:33:22.407Z,1017.47
2018-12-30T01:34:01.381Z,1017.49
2018-12-30T01:35:22.363Z,1017.49
2018-12-30T01:36:01.347Z,1017.54
2018-12-30T01:37:01.330Z,1017.54
2018-12-30T01:38:22.319Z,1017.59
2018-12-30T01:39:01.285Z,1017.58
2018-12-30T01:40:22.276Z,1017.57
2018-12-30T01:41:01.251Z,1017.55
2018-12-30T01:42:01.234Z,1017.55
2018-12-30T01:43:22.211Z,1017.56
2018-12-30T01:44:01.201Z,1017.64
2018-12-30T01:45:22.193Z,1017.59
2018-12-30T01:46:01.164Z,1017.64
2018-12-30T01:47:01.140Z,1017.57
2018-12-30T01:48:22.131Z,1017.68
2018-12-30T01:49:01.103Z,1017.67
2018-12-30T01:50:22.077Z,1017.63
2018-12-30T01:51:01.061Z,1017.70
2018-12-30T01:52:01.049Z,1017.66
2018-12-30T01:53:22.041Z,1017.64
2018-12-30T01:54:01.010Z,1017.74
2018-12-30T01:55:21.988Z,1017.77
2018-12-30T01:56:00.965Z,1017.82
2018-12-30T01:57:00.953Z,1017.79
2018-12-30T01:58:21.926Z,1017.85
2018-12-30T01:59:00.904Z,1017.87
2018-12-30T02:00:21.894Z,1017.85
2018-12-30T02:01:00.876Z,1017.90
2018-12-30T02:02:00.846Z,1017.80
2018-12-30T02:03:21.838Z,1017.80
2018-12-30T02:04:00.827Z,1017.94
2018-12-30T02:05:21.810Z,1017.94
2018-12-30T02:06:00.768Z,1018.02
2018-12-30T02:07:00.771Z,1017.98
2018-12-30T02:08:21.760Z,1018.06
2018-12-30T02:09:00.713Z,1018.11
2018-12-30T02:10:21.699Z,1018.21
2018-12-30T02:11:00.681Z,1018.10
2018-12-30T02:12:00.653Z,1018.09
2018-12-30T02:13:21.648Z,1018.18
2018-12-30T02:14:00.617Z,1018.11
2018-12-30T02:15:21.608Z,1018.24
2018-12-30T02:16:00.588Z,1018.31
2018-12-30T02:17:00.559Z,1018.43
2018-12-30T02:18:21.545Z,1018.42
2018-12-30T02:19:00.533Z,1018.50
2018-12-30T02:20:21.512Z,1018.52
2018-12-30T02:21:00.490Z,1018.45
2018-12-30T02:22:00.475Z,1018.56
2018-12-30T02:23:21.445Z,1018.54
2018-12-30T02:24:00.430Z,1018.60
2018-12-30T02:25:21.406Z,1018.57
2018-12-30T02:26:00.386Z,1018.62
2018-12-30T02:27:00.370Z,1018.58
2018-12-30T02:28:21.367Z,1018.56
2018-12-30T02:29:00.339Z,1018.65
2018-12-30T02:30:21.335Z,1018.68
2018-12-30T02:31:00.299Z,1018.68
2018-12-30T02:32:00.281Z,1018.63
2018-12-30T02:33:21.265Z,1018.73
2018-12-30T02:34:00.261Z,1018.71
2018-12-30T02:35:21.217Z,1018.70
2018-12-30T02:36:00.203Z,1018.71
2018-12-30T02:37:00.181Z,1018.77
2018-12-30T02:38:21.171Z,1018.71
2018-12-30T02:39:00.149Z,1018.76
2018-12-30T02:40:21.132Z,1018.69
2018-12-30T02:41:00.100Z,1018.73
2018-12-30T02:42:00.095Z,1018.65
2018-12-30T02:43:21.063Z,1018.63
2018-12-30T02:44:00.070Z,1018.65
2018-12-30T02:45:21.036Z,1018.67
2018-12-30T02:46:00.003Z,1018.70
2018-12-30T02:46:59.994Z,1018.72
2018-12-30T02:48:20.967Z,1018.76
2018-12-30T02:48:59.965Z,1018.74
2018-12-30T02:50:20.939Z,1018.76
2018-12-30T02:50:59.923Z,1018.84
2018-12-30T02:51:59.910Z,1018.87
2018-12-30T02:53:20.882Z,1018.86
2018-12-30T02:53:59.852Z,1018.93
2018-12-30T02:55:20.842Z,1018.90
2018-12-30T02:55:59.814Z,1018.96
2018-12-30T02:56:59.799Z,1018.82
2018-12-30T02:58:20.777Z,1018.88
2018-12-30T02:58:59.770Z,1018.92
2018-12-30T03:00:20.747Z,1018.92
2018-12-30T03:00:59.719Z,1018.94
2018-12-30T03:01:59.715Z,1018.95
2018-12-30T03:03:20.691Z,1018.94
2018-12-30T03:03:59.673Z,1018.92
2018-12-30T03:05:20.645Z,1018.94
2018-12-30T03:05:59.626Z,1018.95
2018-12-30T03:06:59.616Z,1018.88
2018-12-30T03:08:20.588Z,1018.91
2018-12-30T03:08:59.566Z,1018.96
2018-12-30T03:10:20.562Z,1018.96
2018-12-30T03:10:59.528Z,1019.07
2018-12-30T03:11:59.516Z,1019.05
2018-12-30T03:13:20.489Z,1019.02
2018-12-30T03:13:59.487Z,1019.03
2018-12-30T03:15:20.458Z,1019.10
2018-12-30T03:15:59.432Z,1019.10
2018-12-30T03:16:59.424Z,1019.16
2018-12-30T03:18:20.409Z,1019.17
2018-12-30T03:18:59.376Z,1019.23
2018-12-30T03:20:20.368Z,1019.28
2018-12-30T03:20:59.340Z,1019.10
2018-12-30T03:22:02.326Z,1019.15
2018-12-30T03:23:20.301Z,1019.20
2018-12-30T03:23:59.281Z,1019.16
2018-12-30T03:25:20.263Z,1019.16
2018-12-30T03:25:59.250Z,1019.23
2018-12-30T03:26:59.224Z,1019.17
2018-12-30T03:28:20.222Z,1019.19
2018-12-30T03:28:59.184Z,1019.22
2018-12-30T03:30:20.192Z,1019.28
2018-12-30T03:30:59.155Z,1019.26
2018-12-30T03:31:59.140Z,1019.28
2018-12-30T03:33:20.113Z,1019.23
2018-12-30T03:33:59.103Z,1019.22
2018-12-30T03:35:20.083Z,1019.26
2018-12-30T03:35:59.057Z,1019.32
2018-12-30T03:36:59.035Z,1019.33
2018-12-30T03:38:20.016Z,1019.28
2018-12-30T03:38:58.993Z,1019.33
2018-12-30T03:40:19.981Z,1019.35
2018-12-30T03:40:58.958Z,1019.29
2018-12-30T03:41:58.946Z,1019.31
2018-12-30T03:43:19.934Z,1019.30
2018-12-30T03:43:58.903Z,1019.32
2018-12-30T03:45:19.893Z,1019.40
2018-12-30T03:45:58.890Z,1019.43
2018-12-30T03:46:58.848Z,1019.35
2018-12-30T03:48:19.827Z,1019.41
2018-12-30T03:48:58.818Z,1019.35
2018-12-30T03:50:19.787Z,1019.34
2018-12-30T03:50:58.777Z,1019.38
2018-12-30T03:51:58.752Z,1019.33
2018-12-30T03:53:19.725Z,1019.39
2018-12-30T03:53:58.704Z,1019.42
2018-12-30T03:55:19.691Z,1019.44
2018-12-30T03:55:58.676Z,1019.42
2018-12-30T03:56:58.677Z,1019.42
2018-12-30T03:58:19.649Z,1019.46
2018-12-30T03:58:58.620Z,1019.49
2018-12-30T04:00:19.603Z,1019.50
2018-12-30T04:00:58.635Z,1019.52
2018-12-30T04:01:58.584Z,1019.55
2018-12-30T04:03:19.539Z,1019.58
2018-12-30T04:03:58.517Z,1019.63
2018-12-30T04:05:19.506Z,1019.63
2018-12-30T04:05:58.484Z,1019.62
2018-12-30T04:06:58.471Z,1019.61
2018-12-30T04:08:19.445Z,1019.68
2018-12-30T04:08:58.419Z,1019.59
2018-12-30T04:10:19.409Z,1019.61
2018-12-30T04:10:58.384Z,1019.66
2018-12-30T04:11:58.365Z,1019.69
2018-12-30T04:13:19.350Z,1019.71
2018-12-30T04:13:58.338Z,1019.69
2018-12-30T04:15:19.304Z,1019.68
2018-12-30T04:15:58.296Z,1019.73
2018-12-30T04:16:58.274Z,1019.76
2018-12-30T04:18:19.258Z,1019.73
2018-12-30T04:18:58.227Z,1019.71
2018-12-30T04:20:19.215Z,1019.71
2018-12-30T04:20:58.193Z,1019.74
2018-12-30T04:21:58.183Z,1019.82
2018-12-30T04:23:19.152Z,1019.85
2018-12-30T04:23:58.140Z,1019.84
2018-12-30T04:25:19.123Z,1019.88
2018-12-30T04:25:58.095Z,1019.84
2018-12-30T04:26:58.082Z,1019.85
2018-12-30T04:28:19.064Z,1019.89
2018-12-30T04:28:58.037Z,1019.94
2018-12-30T04:30:19.029Z,1019.96
2018-12-30T04:30:58.008Z,1019.95
2018-12-30T04:31:57.979Z,1019.93
2018-12-30T04:33:18.957Z,1019.97
2018-12-30T04:33:57.938Z,1019.94
2018-12-30T04:35:18.933Z,1019.95
2018-12-30T04:35:57.905Z,1019.97
2018-12-30T04:36:57.884Z,1020.04
2018-12-30T04:38:18.877Z,1020.04
2018-12-30T04:38:57.872Z,1020.04
2018-12-30T04:40:18.843Z,1020.03
2018-12-30T04:40:57.813Z,1020.05
2018-12-30T04:41:57.792Z,1020.04
2018-12-30T04:43:19.725Z,1020.03
2018-12-30T04:43:57.895Z,1020.04
2018-12-30T04:45:18.734Z,1020.09
2018-12-30T04:45:57.722Z,1020.14
2018-12-30T04:46:57.690Z,1020.13
2018-12-30T04:48:18.679Z,1020.15
2018-12-30T04:48:57.660Z,1020.19
2018-12-30T04:50:18.638Z,1020.20
2018-12-30T04:50:57.616Z,1020.17
2018-12-30T04:51:57.606Z,1020.17
2018-12-30T04:53:18.577Z,1020.22
2018-12-30T04:53:57.572Z,1020.25
2018-12-30T04:55:18.554Z,1020.28
2018-12-30T04:55:57.517Z,1020.33
2018-12-30T04:56:57.499Z,1020.36
2018-12-30T04:58:18.495Z,1020.34
2018-12-30T04:58:57.466Z,1020.32
2018-12-30T05:00:18.447Z,1020.31
2018-12-30T05:00:57.430Z,1020.29
2018-12-30T05:01:57.424Z,1020.30
2018-12-30T05:03:18.446Z,1020.32
2018-12-30T05:03:57.384Z,1020.32
2018-12-30T05:05:18.355Z,1020.35
2018-12-30T05:05:57.329Z,1020.41
2018-12-30T05:06:57.318Z,1020.35
2018-12-30T05:08:18.303Z,1020.40
2018-12-30T05:08:57.275Z,1020.36
2018-12-30T05:10:18.255Z,1020.30
2018-12-30T05:10:57.237Z,1020.29
2018-12-30T05:11:57.216Z,1020.26
2018-12-30T05:13:18.213Z,1020.29
2018-12-30T05:13:57.182Z,1020.30
2018-12-30T05:15:18.169Z,1020.28
2018-12-30T05:15:57.148Z,1020.30
2018-12-30T05:16:57.127Z,1020.30
2018-12-30T05:18:18.110Z,1020.26
2018-12-30T05:18:57.098Z,1020.17
2018-12-30T05:20:18.072Z,1020.07
2018-12-30T05:20:57.047Z,1020.04
2018-12-30T05:21:57.036Z,1020.11
2018-12-30T05:23:18.006Z,1020.16
2018-12-30T05:23:56.987Z,1020.17
2018-12-30T05:25:17.976Z,1020.19
2018-12-30T05:25:56.945Z,1020.19
2018-12-30T05:26:56.945Z,1020.22
2018-12-30T05:28:17.920Z,1020.25
2018-12-30T05:28:56.888Z,1020.24
2018-12-30T05:30:17.875Z,1020.18
2018-12-30T05:30:56.867Z,1020.19
2018-12-30T05:31:56.874Z,1020.34
2018-12-30T05:33:17.818Z,1020.49
2018-12-30T05:33:56.802Z,1020.44
2018-12-30T05:35:17.794Z,1020.48
2018-12-30T05:35:56.763Z,1020.57
2018-12-30T05:36:56.743Z,1020.66
2018-12-30T05:38:17.727Z,1020.67
2018-12-30T05:38:56.701Z,1020.67
2018-12-30T05:40:17.681Z,1020.69
2018-12-30T05:40:56.661Z,1020.78
2018-12-30T05:41:56.649Z,1020.75
2018-12-30T05:43:17.624Z,1020.72
2018-12-30T05:43:56.601Z,1020.69
2018-12-30T05:45:17.593Z,1020.71
2018-12-30T05:45:56.573Z,1020.73
2018-12-30T05:46:56.549Z,1020.73
2018-12-30T05:48:17.528Z,1020.75
2018-12-30T05:48:56.508Z,1020.79
2018-12-30T05:50:17.509Z,1020.80
2018-12-30T05:50:56.476Z,1020.78
2018-12-30T05:51:56.454Z,1020.77
2018-12-30T05:53:17.433Z,1020.81
2018-12-30T05:53:56.412Z,1020.72
2018-12-30T05:55:17.395Z,1020.77
2018-12-30T05:55:56.389Z,1020.84
2018-12-30T05:56:56.365Z,1020.88
2018-12-30T05:58:17.335Z,1020.80
2018-12-30T05:58:56.322Z,1020.63
2018-12-30T06:00:17.298Z,1020.67
2018-12-30T06:00:56.279Z,1020.74
2018-12-30T06:01:56.269Z,1020.83
2018-12-30T06:03:17.241Z,1020.76
2018-12-30T06:03:56.239Z,1020.79
2018-12-30T06:05:17.205Z,1020.86
2018-12-30T06:05:56.182Z,1020.81
2018-12-30T06:06:56.161Z,1020.74
2018-12-30T06:08:17.144Z,1020.76
2018-12-30T06:08:56.123Z,1020.86
2018-12-30T06:10:17.125Z,1020.93
2018-12-30T06:10:56.095Z,1020.88
2018-12-30T06:11:56.071Z,1020.87
2018-12-30T06:13:17.056Z,1020.91
2018-12-30T06:13:56.029Z,1020.85
2018-12-30T06:15:17.013Z,1020.91
2018-12-30T06:15:55.990Z,1020.91
2018-12-30T06:16:55.972Z,1021.00
2018-12-30T06:18:16.958Z,1021.07
2018-12-30T06:18:55.939Z,1021.05
2018-12-30T06:20:16.920Z,1020.95
2018-12-30T06:20:55.894Z,1021.15
2018-12-30T06:21:55.889Z,1021.21
2018-12-30T06:23:16.868Z,1021.08
2018-12-30T06:23:55.846Z,1020.98
2018-12-30T06:25:16.822Z,1021.07
2018-12-30T06:25:55.797Z,1021.14
2018-12-30T06:26:55.778Z,1021.11
2018-12-30T06:28:16.767Z,1021.08
2018-12-30T06:28:55.761Z,1021.16
2018-12-30T06:30:16.725Z,1021.18
2018-12-30T06:30:55.703Z,1021.17
2018-12-30T06:31:55.682Z,1021.20
2018-12-30T06:33:16.673Z,1021.19
2018-12-30T06:33:55.646Z,1021.23
2018-12-30T06:35:16.629Z,1021.24
2018-12-30T06:35:55.604Z,1021.32
2018-12-30T06:36:55.594Z,1021.29
2018-12-30T06:38:16.591Z,1021.32
2018-12-30T06:38:55.550Z,1021.31
2018-12-30T06:40:16.548Z,1021.34
2018-12-30T06:40:55.514Z,1021.36
2018-12-30T06:41:55.487Z,1021.36
2018-12-30T06:43:16.470Z,1021.40
2018-12-30T06:43:55.459Z,1021.43
2018-12-30T06:45:16.431Z,1021.47
2018-12-30T06:45:55.418Z,1021.54
2018-12-30T06:46:55.396Z,1021.53
2018-12-30T06:48:16.372Z,1021.53
2018-12-30T06:48:55.354Z,1021.60
2018-12-30T06:50:16.336Z,1021.60
2018-12-30T06:50:55.329Z,1021.62
2018-12-30T06:51:55.304Z,1021.58
2018-12-30T06:53:16.286Z,1021.61
2018-12-30T06:53:55.264Z,1021.55
2018-12-30T06:55:16.240Z,1021.49
2018-12-30T06:55:55.215Z,1021.55
2018-12-30T06:56:55.206Z,1021.67
2018-12-30T06:58:16.187Z,1021.63
2018-12-30T06:58:55.167Z,1021.53
2018-12-30T07:00:16.139Z,1021.52
2018-12-30T07:00:55.127Z,1021.56
2018-12-30T07:01:55.108Z,1021.59
2018-12-30T07:03:16.080Z,1021.61
2018-12-30T07:03:55.067Z,1021.50
2018-12-30T07:05:16.043Z,1021.51
2018-12-30T07:05:55.024Z,1021.54
2018-12-30T07:06:55.004Z,1021.47
2018-12-30T07:08:15.993Z,1021.42
2018-12-30T07:08:54.961Z,1021.48
2018-12-30T07:10:15.955Z,1021.54
2018-12-30T07:10:54.927Z,1021.58
2018-12-30T07:11:54.906Z,1021.57
2018-12-30T07:13:15.895Z,1021.53
2018-12-30T07:13:54.878Z,1021.53
2018-12-30T07:15:15.862Z,1021.53
2018-12-30T07:15:54.836Z,1021.57
2018-12-30T07:16:54.821Z,1021.65
2018-12-30T07:18:15.793Z,1021.61
2018-12-30T07:18:54.771Z,1021.59
2018-12-30T07:20:15.756Z,1021.59
2018-12-30T07:20:54.730Z,1021.62
2018-12-30T07:21:54.715Z,1021.60
2018-12-30T07:23:15.703Z,1021.60
2018-12-30T07:23:54.671Z,1021.57
2018-12-30T07:25:15.652Z,1021.53
2018-12-30T07:25:54.630Z,1021.57
2018-12-30T07:26:54.613Z,1021.56
2018-12-30T07:28:15.607Z,1021.55
2018-12-30T07:28:54.574Z,1021.50
2018-12-30T07:30:15.567Z,1021.48
2018-12-30T07:30:54.543Z,1021.49
2018-12-30T07:31:54.518Z,1021.48
2018-12-30T07:33:15.497Z,1021.51
2018-12-30T07:33:54.477Z,1021.51
2018-12-30T07:35:15.466Z,1021.48
2018-12-30T07:35:54.439Z,1021.47
2018-12-30T07:36:54.417Z,1021.45
2018-12-30T07:38:15.409Z,1021.46
2018-12-30T07:38:54.378Z,1021.43
2018-12-30T07:40:15.358Z,1021.42
2018-12-30T07:40:54.348Z,1021.43
2018-12-30T07:41:54.336Z,1021.48
2018-12-30T07:43:15.304Z,1021.51
2018-12-30T07:43:54.286Z,1021.49
2018-12-30T07:45:15.273Z,1021.56
2018-12-30T07:45:54.243Z,1021.56
2018-12-30T07:46:54.231Z,1021.60
2018-12-30T07:48:15.203Z,1021.63
2018-12-30T07:48:54.185Z,1021.66
2018-12-30T07:50:15.178Z,1021.66
2018-12-30T07:50:54.142Z,1021.71
2018-12-30T07:51:54.127Z,1021.70
2018-12-30T07:53:15.110Z,1021.69
2018-12-30T07:53:54.095Z,1021.70
2018-12-30T07:55:15.076Z,1021.76
2018-12-30T07:55:54.044Z,1021.69
2018-12-30T07:56:54.037Z,1021.74
2018-12-30T07:58:15.016Z,1021.75
2018-12-30T07:58:53.985Z,1021.74
2018-12-30T08:00:14.968Z,1021.72
2018-12-30T08:00:53.949Z,1021.67
2018-12-30T08:01:53.926Z,1021.74
2018-12-30T08:03:14.911Z,1021.74
2018-12-30T08:03:53.890Z,1021.72
2018-12-30T08:05:14.879Z,1021.69
2018-12-30T08:05:53.854Z,1021.76
2018-12-30T08:06:53.843Z,1021.73
2018-12-30T08:08:14.810Z,1021.71
2018-12-30T08:08:53.796Z,1021.69
2018-12-30T08:10:14.785Z,1021.70
2018-12-30T08:10:53.752Z,1021.75
2018-12-30T08:11:53.737Z,1021.66
2018-12-30T08:13:14.716Z,1021.77
2018-12-30T08:13:53.694Z,1021.77
2018-12-30T08:15:14.674Z,1021.77
2018-12-30T08:15:53.655Z,1021.76
2018-12-30T08:16:53.633Z,1021.75
2018-12-30T08:18:14.620Z,1021.74
2018-12-30T08:18:53.605Z,1021.74
2018-12-30T08:20:14.580Z,1021.72
2018-12-30T08:20:53.564Z,1021.71
2018-12-30T08:21:53.538Z,1021.71
2018-12-30T08:23:21.284Z,1021.69
2018-12-30T08:23:53.503Z,1021.71
2018-12-30T08:25:14.481Z,1021.70
2018-12-30T08:25:53.470Z,1021.75
2018-12-30T08:26:53.440Z,1021.74
2018-12-30T08:28:14.423Z,1021.79
2018-12-30T08:28:53.401Z,1021.75
2018-12-30T08:30:14.384Z,1021.73
2018-12-30T08:30:53.365Z,1021.81
2018-12-30T08:31:53.361Z,1021.87
2018-12-30T08:33:14.336Z,1021.85
2018-12-30T08:33:53.306Z,1021.91
2018-12-30T08:35:14.290Z,1021.91
2018-12-30T08:35:53.284Z,1021.85
2018-12-30T08:36:53.251Z,1021.89
2018-12-30T08:38:14.232Z,1021.82
2018-12-30T08:38:53.220Z,1021.81
2018-12-30T08:40:14.208Z,1021.86
2018-12-30T08:40:53.181Z,1021.87
2018-12-30T08:41:53.157Z,1021.87
2018-12-30T08:43:14.152Z,1021.85
2018-12-30T08:43:53.114Z,1021.91
2018-12-30T08:45:15.812Z,1021.85
2018-12-30T08:45:53.084Z,1021.86
2018-12-30T08:46:53.059Z,1021.87
2018-12-30T08:48:14.041Z,1021.92
2018-12-30T08:48:53.022Z,1021.87
2018-12-30T08:50:14.010Z,1021.87
2018-12-30T08:50:52.982Z,1021.91
2018-12-30T08:51:52.970Z,1021.88
2018-12-30T08:53:13.945Z,1021.94
2018-12-30T08:53:52.931Z,1021.92
2018-12-30T08:55:13.908Z,1021.94
2018-12-30T08:55:52.891Z,1021.95
2018-12-30T08:56:52.868Z,1021.88
2018-12-30T08:58:13.855Z,1021.85
2018-12-30T08:58:52.843Z,1021.88
2018-12-30T09:00:13.813Z,1021.81
2018-12-30T09:00:52.796Z,1021.79
2018-12-30T09:01:52.782Z,1021.82
2018-12-30T09:03:13.756Z,1021.87
2018-12-30T09:03:52.735Z,1021.82
2018-12-30T09:05:13.744Z,1021.82
2018-12-30T09:05:52.694Z,1021.87
2018-12-30T09:06:52.680Z,1021.87
2018-12-30T09:08:13.659Z,1021.77
2018-12-30T09:08:52.645Z,1021.75
2018-12-30T09:10:13.622Z,1021.74
2018-12-30T09:10:52.607Z,1021.66
2018-12-30T09:11:52.592Z,1021.63
2018-12-30T09:13:13.566Z,1021.70
2018-12-30T09:13:52.554Z,1021.72
2018-12-30T09:15:13.540Z,1021.72
2018-12-30T09:15:52.514Z,1021.77
2018-12-30T09:16:52.487Z,1021.76
2018-12-30T09:18:13.470Z,1021.78
2018-12-30T09:18:52.449Z,1021.87
2018-12-30T09:20:13.444Z,1021.86
2018-12-30T09:20:52.412Z,1021.84
2018-12-30T09:21:52.395Z,1021.81
2018-12-30T09:23:13.383Z,1021.81
2018-12-30T09:23:52.368Z,1021.80
2018-12-30T09:25:13.342Z,1021.80
2018-12-30T09:25:52.325Z,1021.76
2018-12-30T09:26:52.315Z,1021.85
2018-12-30T09:28:13.283Z,1021.90
2018-12-30T09:28:52.260Z,1021.96
2018-12-30T09:30:13.254Z,1022.00
2018-12-30T09:30:52.222Z,1022.01
2018-12-30T09:31:52.202Z,1022.01
2018-12-30T09:33:13.187Z,1022.00
2018-12-30T09:33:52.177Z,1022.01
2018-12-30T09:35:13.154Z,1021.96
2018-12-30T09:35:52.140Z,1021.96
2018-12-30T09:36:53.348Z,1021.97
2018-12-30T09:38:13.106Z,1021.92
2018-12-30T09:38:52.086Z,1021.95
2018-12-30T09:40:13.068Z,1021.99
2018-12-30T09:40:52.050Z,1022.02
2018-12-30T09:41:52.032Z,1022.06
2018-12-30T09:43:13.005Z,1022.05
2018-12-30T09:43:51.985Z,1022.06
2018-12-30T09:45:12.966Z,1022.06
2018-12-30T09:45:51.948Z,1022.08
2018-12-30T09:46:51.938Z,1022.14
2018-12-30T09:48:12.910Z,1022.10
2018-12-30T09:48:51.892Z,1022.07
2018-12-30T09:50:12.876Z,1022.12
2018-12-30T09:50:51.861Z,1022.20
2018-12-30T09:51:51.833Z,1022.22
2018-12-30T09:53:12.830Z,1022.22
2018-12-30T09:53:51.798Z,1022.26
2018-12-30T09:55:12.793Z,1022.31
2018-12-30T09:55:51.771Z,1022.32
2018-12-30T09:56:51.748Z,1022.42
2018-12-30T09:58:12.726Z,1022.49
2018-12-30T09:58:51.711Z,1022.39
2018-12-30T10:00:12.697Z,1022.39
2018-12-30T10:00:51.677Z,1022.35
2018-12-30T10:01:51.652Z,1022.38
2018-12-30T10:03:12.645Z,1022.33
2018-12-30T10:03:51.622Z,1022.32
2018-12-30T10:05:12.596Z,1022.33
2018-12-30T10:05:51.584Z,1022.37
2018-12-30T10:06:51.567Z,1022.31
2018-12-30T10:08:12.540Z,1022.32
2018-12-30T10:08:51.530Z,1022.35
2018-12-30T10:10:12.508Z,1022.32
2018-12-30T10:10:51.484Z,1022.34
2018-12-30T10:11:51.464Z,1022.26
2018-12-30T10:13:12.454Z,1022.29
2018-12-30T10:13:51.426Z,1022.33
2018-12-30T10:15:12.410Z,1022.30
2018-12-30T10:15:51.390Z,1022.28
2018-12-30T10:16:51.373Z,1022.25
2018-12-30T10:18:12.367Z,1022.29
2018-12-30T10:18:51.344Z,1022.32
2018-12-30T10:20:12.324Z,1022.34
2018-12-30T10:20:51.300Z,1022.35
2018-12-30T10:21:51.287Z,1022.37
2018-12-30T10:23:12.266Z,1022.36
2018-12-30T10:23:53.067Z,1022.32
2018-12-30T10:25:12.235Z,1022.30
2018-12-30T10:25:51.205Z,1022.33
2018-12-30T10:26:51.189Z,1022.31
2018-12-30T10:28:12.173Z,1022.32
2018-12-30T10:28:51.153Z,1022.31
2018-12-30T10:30:12.144Z,1022.25
2018-12-30T10:30:51.117Z,1022.26
2018-12-30T10:31:51.102Z,1022.22
2018-12-30T10:33:12.084Z,1022.22
2018-12-30T10:33:51.066Z,1022.22
2018-12-30T10:35:12.046Z,1022.25
2018-12-30T10:35:51.021Z,1022.22
2018-12-30T10:36:51.012Z,1022.23
2018-12-30T10:38:11.992Z,1022.24
2018-12-30T10:38:50.970Z,1022.24
2018-12-30T10:40:11.969Z,1022.24
2018-12-30T10:40:50.930Z,1022.25
2018-12-30T10:41:50.921Z,1022.23
2018-12-30T10:43:11.896Z,1022.23
2018-12-30T10:43:50.882Z,1022.30
2018-12-30T10:45:11.871Z,1022.35
2018-12-30T10:45:50.841Z,1022.31
2018-12-30T10:46:50.825Z,1022.33
2018-12-30T10:48:11.809Z,1022.26
2018-12-30T10:48:50.792Z,1022.27
2018-12-30T10:50:11.772Z,1022.21
2018-12-30T10:50:50.753Z,1022.18
2018-12-30T10:51:50.731Z,1022.15
2018-12-30T10:53:11.718Z,1022.13
2018-12-30T10:53:50.693Z,1022.10
2018-12-30T10:55:11.681Z,1022.11
2018-12-30T10:55:50.662Z,1022.10
2018-12-30T10:56:50.650Z,1022.09
2018-12-30T10:58:11.629Z,1022.08
2018-12-30T10:58:50.606Z,1022.15
2018-12-30T11:00:11.592Z,1022.17
2018-12-30T11:00:50.572Z,1022.23
2018-12-30T11:01:50.578Z,1022.29
2018-12-30T11:03:11.546Z,1022.26
2018-12-30T11:03:50.520Z,1022.27
2018-12-30T11:05:11.502Z,1022.24
2018-12-30T11:05:50.479Z,1022.27
2018-12-30T11:06:50.474Z,1022.26
2018-12-30T11:08:11.441Z,1022.21
2018-12-30T11:08:50.480Z,1022.20
2018-12-30T11:10:11.413Z,1022.16
2018-12-30T11:10:50.390Z,1022.12
2018-12-30T11:11:50.377Z,1022.17
2018-12-30T11:13:11.356Z,1022.14
2018-12-30T11:13:50.344Z,1022.17
2018-12-30T11:15:11.329Z,1022.22
2018-12-30T11:15:50.298Z,1022.24
2018-12-30T11:16:50.280Z,1022.19
2018-12-30T11:18:11.266Z,1022.21
2018-12-30T11:18:50.248Z,1022.18
2018-12-30T11:20:11.231Z,1022.26
2018-12-30T11:20:50.214Z,1022.28
2018-12-30T11:21:50.199Z,1022.20
2018-12-30T11:23:14.172Z,1022.20
2018-12-30T11:23:50.158Z,1022.17
2018-12-30T11:25:11.339Z,1022.16
2018-12-30T11:25:50.123Z,1022.16
2018-12-30T11:26:50.109Z,1022.16
2018-12-30T11:28:11.100Z,1022.15
2018-12-30T11:28:50.067Z,1022.07
2018-12-30T11:30:11.059Z,1022.05
2018-12-30T11:30:50.029Z,1022.09
2018-12-30T11:31:50.018Z,1022.10
2018-12-30T11:33:11.000Z,1022.06
2018-12-30T11:33:49.984Z,1022.06
2018-12-30T11:35:10.958Z,1022.11
2018-12-30T11:35:49.946Z,1022.04
2018-12-30T11:36:49.926Z,1022.01
2018-12-30T11:38:10.905Z,1022.03
2018-12-30T11:38:49.884Z,1022.04
2018-12-30T11:40:10.870Z,1022.02
2018-12-30T11:40:49.853Z,1022.03
2018-12-30T11:41:49.846Z,1022.06
2018-12-30T11:43:10.826Z,1022.05
2018-12-30T11:43:49.804Z,1022.03
2018-12-30T11:45:10.783Z,1021.99
2018-12-30T11:45:49.760Z,1022.01
2018-12-30T11:46:49.740Z,1022.04
2018-12-30T11:48:10.732Z,1021.99
2018-12-30T11:48:49.704Z,1021.97
2018-12-30T11:50:10.692Z,1021.91
2018-12-30T11:50:49.677Z,1021.90
2018-12-30T11:51:49.650Z,1021.90
2018-12-30T11:53:10.637Z,1021.88
2018-12-30T11:53:49.622Z,1021.91
2018-12-30T11:55:10.609Z,1021.87
2018-12-30T11:55:49.600Z,1021.92
2018-12-30T11:56:49.567Z,1021.85
2018-12-30T11:58:10.553Z,1021.82
2018-12-30T11:58:49.530Z,1021.81
2018-12-30T12:00:10.519Z,1021.84
2018-12-30T12:00:49.490Z,1021.84
2018-12-30T12:01:49.471Z,1021.87
2018-12-30T12:03:10.460Z,1021.88
2018-12-30T12:03:49.447Z,1021.87
2018-12-30T12:05:10.420Z,1021.84